Terminal Aerodrome Forecast
Issued by NWS

Home | Current Version | Previous Version | Text Only | Print | Product List | Glossary On
Versions: 1 2 3 4 5 6 7 8 9 10 11 12 13 14
000
FTUS45 KRIW 201100
TAFPNA
TAF
KPNA 201120Z 2012/2112 30006KT P6SM FEW100 BKN250
     FM202000 29012G20KT P6SM SCT080
     FM210100 30007KT P6SM SCT250
      AMD LTD TO CLD VIS AND WIND=

USA.gov is the U.S. government's official web portal to all federal, state and local government web resources and services.